sensor_id;sensor_type;location;lat;lon;timestamp;temperature;humidity
24436;DHT22;12616;52.470;13.436;2022-11-10T00:00:10;12.20;99.90
24436;DHT22;12616;52.470;13.436;2022-11-10T00:05:05;12.10;1.00
24436;DHT22;12616;52.470;13.436;2022-11-10T00:20:11;11.80;1.00
24436;DHT22;12616;52.470;13.436;2022-11-10T00:22:39;11.70;99.90
24436;DHT22;12616;52.470;13.436;2022-11-10T00:25:08;11.70;95.80
24436;DHT22;12616;52.470;13.436;2022-11-10T00:30:03;11.50;99.90
24436;DHT22;12616;52.470;13.436;2022-11-10T00:32:30;12.10;99.90
24436;DHT22;12616;52.470;13.436;2022-11-10T00:39:51;11.90;39.10
24436;DHT22;12616;52.470;13.436;2022-11-10T00:42:19;12.00;99.90
24436;DHT22;12616;52.470;13.436;2022-11-10T00:44:46;12.30;1.00
24436;DHT22;12616;52.470;13.436;2022-11-10T00:47:13;12.40;56.80
24436;DHT22;12616;52.470;13.436;2022-11-10T00:49:40;11.90;99.90
24436;DHT22;12616;52.470;13.436;2022-11-10T00:52:07;12.30;99.90
24436;DHT22;12616;52.470;13.436;2022-11-10T00:59:30;12.10;1.00
24436;DHT22;12616;52.470;13.436;2022-11-10T01:04:24;12.00;1.00
24436;DHT22;12616;52.470;13.436;2022-11-10T01:11:45;12.10;99.90
24436;DHT22;12616;52.470;13.436;2022-11-10T01:16:40;12.10;99.90
24436;DHT22;12616;52.470;13.436;2022-11-10T01:19:07;12.20;99.90
24436;DHT22;12616;52.470;13.436;2022-11-10T01:21:35;12.10;99.90
24436;DHT22;12616;52.470;13.436;2022-11-10T01:24:02;12.20;1.00
24436;DHT22;12616;52.470;13.436;2022-11-10T01:26:29;12.10;99.90
24436;DHT22;12616;52.470;13.436;2022-11-10T01:28:56;12.00;99.90
24436;DHT22;12616;52.470;13.436;2022-11-10T01:31:23;12.00;99.90
24436;DHT22;12616;52.470;13.436;2022-11-10T01:33:51;12.00;1.00
24436;DHT22;12616;52.470;13.436;2022-11-10T01:38:45;11.90;99.90
24436;DHT22;12616;52.470;13.436;2022-11-10T01:41:13;11.90;99.90
24436;DHT22;12616;52.470;13.436;2022-11-10T01:43:40;11.90;99.90
24436;DHT22;12616;52.470;13.436;2022-11-10T01:46:09;11.90;1.00
24436;DHT22;12616;52.470;13.436;2022-11-10T01:48:39;12.00;99.90
24436;DHT22;12616;52.470;13.436;2022-11-10T01:51:14;11.80;1.00
24436;DHT22;12616;52.470;13.436;2022-11-10T01:53:45;11.80;1.00
24436;DHT22;12616;52.470;13.436;2022-11-10T01:56:15;11.70;99.90
24436;DHT22;12616;52.470;13.436;2022-11-10T01:58:46;11.40;99.90
24436;DHT22;12616;52.470;13.436;2022-11-10T02:01:14;11.80;1.00
24436;DHT22;12616;52.470;13.436;2022-11-10T02:03:44;12.00;1.00
24436;DHT22;12616;52.470;13.436;2022-11-10T02:06:13;11.70;99.90
24436;DHT22;12616;52.470;13.436;2022-11-10T02:08:41;11.70;99.90
24436;DHT22;12616;52.470;13.436;2022-11-10T02:11:08;11.70;6.70
24436;DHT22;12616;52.470;13.436;2022-11-10T02:13:35;11.70;99.90
24436;DHT22;12616;52.470;13.436;2022-11-10T02:16:03;11.60;1.00
24436;DHT22;12616;52.470;13.436;2022-11-10T02:20:58;11.80;1.00
24436;DHT22;12616;52.470;13.436;2022-11-10T02:23:45;11.70;1.00
24436;DHT22;12616;52.470;13.436;2022-11-10T02:26:15;11.70;1.00
24436;DHT22;12616;52.470;13.436;2022-11-10T02:28:42;11.70;99.90
24436;DHT22;12616;52.470;13.436;2022-11-10T02:31:09;12.00;99.90
24436;DHT22;12616;52.470;13.436;2022-11-10T02:33:36;11.70;64.40
24436;DHT22;12616;52.470;13.436;2022-11-10T02:36:04;11.80;99.90
24436;DHT22;12616;52.470;13.436;2022-11-10T02:38:31;12.00;99.90
24436;DHT22;12616;52.470;13.436;2022-11-10T02:40:58;11.80;1.00
24436;DHT22;12616;52.470;13.436;2022-11-10T02:43:25;11.80;99.90
24436;DHT22;12616;52.470;13.436;2022-11-10T02:45:52;11.60;99.90
24436;DHT22;12616;52.470;13.436;2022-11-10T02:48:19;11.80;1.00
24436;DHT22;12616;52.470;13.436;2022-11-10T02:50:46;11.80;1.00
24436;DHT22;12616;52.470;13.436;2022-11-10T02:53:14;11.80;1.00
24436;DHT22;12616;52.470;13.436;2022-11-10T02:55:41;11.90;1.00
24436;DHT22;12616;52.470;13.436;2022-11-10T02:58:08;11.80;1.00
24436;DHT22;12616;52.470;13.436;2022-11-10T03:00:35;11.80;1.00
24436;DHT22;12616;52.470;13.436;2022-11-10T03:03:01;11.80;1.00
24436;DHT22;12616;52.470;13.436;2022-11-10T03:05:30;11.90;1.00
24436;DHT22;12616;52.470;13.436;2022-11-10T03:07:58;11.90;99.90
24436;DHT22;12616;52.470;13.436;2022-11-10T03:10:28;12.00;99.90
24436;DHT22;12616;52.470;13.436;2022-11-10T03:12:56;12.00;99.90
24436;DHT22;12616;52.470;13.436;2022-11-10T03:15:23;12.00;99.90
24436;DHT22;12616;52.470;13.436;2022-11-10T03:17:51;12.40;99.90
24436;DHT22;12616;52.470;13.436;2022-11-10T03:20:19;12.00;59.20
24436;DHT22;12616;52.470;13.436;2022-11-10T03:22:46;12.00;23.90
24436;DHT22;12616;52.470;13.436;2022-11-10T03:25:13;12.00;1.00
24436;DHT22;12616;52.470;13.436;2022-11-10T03:27:41;12.30;99.90
24436;DHT22;12616;52.470;13.436;2022-11-10T03:30:09;12.20;1.00
24436;DHT22;12616;52.470;13.436;2022-11-10T03:32:36;12.20;99.90
24436;DHT22;12616;52.470;13.436;2022-11-10T03:35:03;12.10;1.00
24436;DHT22;12616;52.470;13.436;2022-11-10T03:37:30;12.10;1.00
24436;DHT22;12616;52.470;13.436;2022-11-10T03:39:57;11.90;99.90
24436;DHT22;12616;52.470;13.436;2022-11-10T03:42:24;12.10;1.00
24436;DHT22;12616;52.470;13.436;2022-11-10T03:44:52;12.10;1.00
24436;DHT22;12616;52.470;13.436;2022-11-10T03:47:19;11.80;99.90
24436;DHT22;12616;52.470;13.436;2022-11-10T03:49:46;12.20;99.90
24436;DHT22;12616;52.470;13.436;2022-11-10T03:52:13;12.00;1.00
24436;DHT22;12616;52.470;13.436;2022-11-10T03:54:40;12.00;1.00
24436;DHT22;12616;52.470;13.436;2022-11-10T03:57:07;12.00;1.00
24436;DHT22;12616;52.470;13.436;2022-11-10T03:59:34;11.90;1.00
24436;DHT22;12616;52.470;13.436;2022-11-10T04:02:02;11.90;1.00
24436;DHT22;12616;52.470;13.436;2022-11-10T04:04:29;11.90;1.00
24436;DHT22;12616;52.470;13.436;2022-11-10T04:07:22;11.80;1.00
24436;DHT22;12616;52.470;13.436;2022-11-10T04:10:11;11.80;20.80
24436;DHT22;12616;52.470;13.436;2022-11-10T04:12:38;11.70;22.80
24436;DHT22;12616;52.470;13.436;2022-11-10T04:15:22;11.40;1.00
24436;DHT22;12616;52.470;13.436;2022-11-10T04:18:08;11.60;99.90
24436;DHT22;12616;52.470;13.436;2022-11-10T04:20:50;11.30;99.90
24436;DHT22;12616;52.470;13.436;2022-11-10T04:23:17;11.60;99.90
24436;DHT22;12616;52.470;13.436;2022-11-10T04:25:53;11.60;99.90
24436;DHT22;12616;52.470;13.436;2022-11-10T04:28:38;11.50;99.90
24436;DHT22;12616;52.470;13.436;2022-11-10T04:33:33;11.60;96.30
24436;DHT22;12616;52.470;13.436;2022-11-10T04:36:00;11.50;1.00
24436;DHT22;12616;52.470;13.436;2022-11-10T04:38:27;11.60;52.30
24436;DHT22;12616;52.470;13.436;2022-11-10T04:40:54;11.60;90.10
24436;DHT22;12616;52.470;13.436;2022-11-10T04:45:48;11.60;13.90
24436;DHT22;12616;52.470;13.436;2022-11-10T04:48:15;11.50;99.90
24436;DHT22;12616;52.470;13.436;2022-11-10T04:50:44;11.50;99.90
24436;DHT22;12616;52.470;13.436;2022-11-10T04:53:10;11.50;99.90
24436;DHT22;12616;52.470;13.436;2022-11-10T04:55:38;11.70;1.00
24436;DHT22;12616;52.470;13.436;2022-11-10T04:58:06;11.40;99.90
24436;DHT22;12616;52.470;13.436;2022-11-10T05:00:34;11.40;99.90
24436;DHT22;12616;52.470;13.436;2022-11-10T05:03:03;11.40;99.90
24436;DHT22;12616;52.470;13.436;2022-11-10T05:05:32;11.30;99.90
24436;DHT22;12616;52.470;13.436;2022-11-10T05:08:01;11.30;99.90
24436;DHT22;12616;52.470;13.436;2022-11-10T05:10:28;11.30;99.90
24436;DHT22;12616;52.470;13.436;2022-11-10T05:12:56;10.80;1.00
24436;DHT22;12616;52.470;13.436;2022-11-10T05:15:23;11.20;99.90
24436;DHT22;12616;52.470;13.436;2022-11-10T05:17:51;11.10;99.90
24436;DHT22;12616;52.470;13.436;2022-11-10T05:20:20;11.10;1.00
24436;DHT22;12616;52.470;13.436;2022-11-10T05:22:48;11.10;99.90
24436;DHT22;12616;52.470;13.436;2022-11-10T05:25:30;11.10;99.90
24436;DHT22;12616;52.470;13.436;2022-11-10T05:27:57;11.00;1.00
24436;DHT22;12616;52.470;13.436;2022-11-10T05:30:24;10.80;1.00
24436;DHT22;12616;52.470;13.436;2022-11-10T05:32:51;10.90;1.00
24436;DHT22;12616;52.470;13.436;2022-11-10T05:35:18;10.80;15.90
24436;DHT22;12616;52.470;13.436;2022-11-10T05:37:45;11.00;1.00
24436;DHT22;12616;52.470;13.436;2022-11-10T05:40:11;11.00;1.00
24436;DHT22;12616;52.470;13.436;2022-11-10T05:42:43;11.00;1.00
24436;DHT22;12616;52.470;13.436;2022-11-10T05:45:10;11.00;1.00
24436;DHT22;12616;52.470;13.436;2022-11-10T05:47:38;11.10;99.90
24436;DHT22;12616;52.470;13.436;2022-11-10T05:50:06;10.90;1.00
24436;DHT22;12616;52.470;13.436;2022-11-10T05:52:34;10.90;1.00
24436;DHT22;12616;52.470;13.436;2022-11-10T05:55:01;10.90;1.00
24436;DHT22;12616;52.470;13.436;2022-11-10T05:57:28;10.50;99.90
24436;DHT22;12616;52.470;13.436;2022-11-10T05:59:56;10.50;99.90
24436;DHT22;12616;52.470;13.436;2022-11-10T06:02:23;10.90;1.00
24436;DHT22;12616;52.470;13.436;2022-11-10T06:07:17;11.10;99.90
24436;DHT22;12616;52.470;13.436;2022-11-10T06:09:44;10.70;99.90
24436;DHT22;12616;52.470;13.436;2022-11-10T06:12:13;10.80;1.00
24436;DHT22;12616;52.470;13.436;2022-11-10T06:14:40;10.70;1.00
24436;DHT22;12616;52.470;13.436;2022-11-10T06:17:08;10.70;1.00
24436;DHT22;12616;52.470;13.436;2022-11-10T06:19:35;10.70;99.90
24436;DHT22;12616;52.470;13.436;2022-11-10T06:22:02;10.70;99.90
24436;DHT22;12616;52.470;13.436;2022-11-10T06:24:29;10.70;92.80
24436;DHT22;12616;52.470;13.436;2022-11-10T06:26:55;10.70;4.90
24436;DHT22;12616;52.470;13.436;2022-11-10T06:29:23;10.70;99.90
24436;DHT22;12616;52.470;13.436;2022-11-10T06:31:50;10.70;99.90
24436;DHT22;12616;52.470;13.436;2022-11-10T06:34:18;10.50;1.00
24436;DHT22;12616;52.470;13.436;2022-11-10T06:36:45;10.70;1.00
24436;DHT22;12616;52.470;13.436;2022-11-10T06:39:12;10.70;1.00
24436;DHT22;12616;52.470;13.436;2022-11-10T06:41:39;10.80;1.00
24436;DHT22;12616;52.470;13.436;2022-11-10T06:44:06;10.70;99.90
24436;DHT22;12616;52.470;13.436;2022-11-10T06:46:33;10.50;99.90
24436;DHT22;12616;52.470;13.436;2022-11-10T06:49:00;10.60;99.90
24436;DHT22;12616;52.470;13.436;2022-11-10T06:53:57;10.60;99.90
24436;DHT22;12616;52.470;13.436;2022-11-10T06:58:51;10.60;99.90
24436;DHT22;12616;52.470;13.436;2022-11-10T07:01:18;10.50;1.00
24436;DHT22;12616;52.470;13.436;2022-11-10T07:16:03;10.80;1.00
24436;DHT22;12616;52.470;13.436;2022-11-10T07:23:24;11.30;99.90
24436;DHT22;12616;52.470;13.436;2022-11-10T07:25:53;11.00;1.00
24436;DHT22;12616;52.470;13.436;2022-11-10T07:28:20;11.20;1.00
24436;DHT22;12616;52.470;13.436;2022-11-10T07:33:14;11.10;1.00
24436;DHT22;12616;52.470;13.436;2022-11-10T07:35:41;11.00;1.00
24436;DHT22;12616;52.470;13.436;2022-11-10T07:38:10;11.60;1.00
24436;DHT22;12616;52.470;13.436;2022-11-10T07:43:07;11.20;99.90
24436;DHT22;12616;52.470;13.436;2022-11-10T07:45:34;11.20;99.90
24436;DHT22;12616;52.470;13.436;2022-11-10T07:48:01;11.20;99.90
24436;DHT22;12616;52.470;13.436;2022-11-10T07:50:46;10.90;1.00
24436;DHT22;12616;52.470;13.436;2022-11-10T07:58:43;11.20;99.90
24436;DHT22;12616;52.470;13.436;2022-11-10T08:01:10;11.20;99.90
24436;DHT22;12616;52.470;13.436;2022-11-10T08:03:37;11.10;99.90
24436;DHT22;12616;52.470;13.436;2022-11-10T08:06:04;11.10;1.00
24436;DHT22;12616;52.470;13.436;2022-11-10T08:08:31;11.30;1.00
24436;DHT22;12616;52.470;13.436;2022-11-10T08:10:58;11.20;99.90
24436;DHT22;12616;52.470;13.436;2022-11-10T08:13:25;11.20;99.90
24436;DHT22;12616;52.470;13.436;2022-11-10T08:15:53;11.20;99.90
24436;DHT22;12616;52.470;13.436;2022-11-10T08:18:22;11.30;99.90
24436;DHT22;12616;52.470;13.436;2022-11-10T08:20:50;11.50;99.90
24436;DHT22;12616;52.470;13.436;2022-11-10T08:28:14;11.40;99.90
24436;DHT22;12616;52.470;13.436;2022-11-10T08:30:42;11.50;99.90
24436;DHT22;12616;52.470;13.436;2022-11-10T08:33:12;11.50;99.90
24436;DHT22;12616;52.470;13.436;2022-11-10T08:35:41;11.50;13.60
24436;DHT22;12616;52.470;13.436;2022-11-10T08:38:09;11.60;2.70
24436;DHT22;12616;52.470;13.436;2022-11-10T08:40:38;11.70;1.00
24436;DHT22;12616;52.470;13.436;2022-11-10T08:43:06;12.10;99.90
24436;DHT22;12616;52.470;13.436;2022-11-10T08:45:33;12.50;99.90
24436;DHT22;12616;52.470;13.436;2022-11-10T08:48:02;11.70;99.90
24436;DHT22;12616;52.470;13.436;2022-11-10T08:50:31;12.00;99.90
24436;DHT22;12616;52.470;13.436;2022-11-10T08:53:00;12.10;1.00
24436;DHT22;12616;52.470;13.436;2022-11-10T08:55:27;12.20;1.00
24436;DHT22;12616;52.470;13.436;2022-11-10T08:58:03;12.40;99.90
24436;DHT22;12616;52.470;13.436;2022-11-10T09:00:37;12.20;1.00
24436;DHT22;12616;52.470;13.436;2022-11-10T09:03:05;12.30;1.00
24436;DHT22;12616;52.470;13.436;2022-11-10T09:05:34;12.50;99.90
24436;DHT22;12616;52.470;13.436;2022-11-10T09:08:02;12.50;1.00
24436;DHT22;12616;52.470;13.436;2022-11-10T09:10:30;12.40;1.00
24436;DHT22;12616;52.470;13.436;2022-11-10T09:12:58;12.40;1.00
24436;DHT22;12616;52.470;13.436;2022-11-10T09:15:28;12.50;1.00
24436;DHT22;12616;52.470;13.436;2022-11-10T09:18:16;12.40;1.00
24436;DHT22;12616;52.470;13.436;2022-11-10T09:25:53;12.50;1.00
24436;DHT22;12616;52.470;13.436;2022-11-10T09:35:37;12.50;99.90
24436;DHT22;12616;52.470;13.436;2022-11-10T09:40:58;12.50;1.00
24436;DHT22;12616;52.470;13.436;2022-11-10T09:43:40;12.60;1.00
24436;DHT22;12616;52.470;13.436;2022-11-10T09:46:26;12.50;1.00
24436;DHT22;12616;52.470;13.436;2022-11-10T09:49:21;12.60;99.90
24436;DHT22;12616;52.470;13.436;2022-11-10T09:51:59;12.60;99.90
24436;DHT22;12616;52.470;13.436;2022-11-10T09:54:54;12.60;99.90
24436;DHT22;12616;52.470;13.436;2022-11-10T10:09:08;12.80;99.90
24436;DHT22;12616;52.470;13.436;2022-11-10T10:12:12;12.90;99.90
24436;DHT22;12616;52.470;13.436;2022-11-10T10:15:50;12.90;99.90
24436;DHT22;12616;52.470;13.436;2022-11-10T10:18:50;12.90;99.90
24436;DHT22;12616;52.470;13.436;2022-11-10T10:22:10;12.90;99.90
24436;DHT22;12616;52.470;13.436;2022-11-10T10:26:00;12.90;99.90
24436;DHT22;12616;52.470;13.436;2022-11-10T10:28:54;12.90;99.90
24436;DHT22;12616;52.470;13.436;2022-11-10T10:38:23;13.00;99.90
24436;DHT22;12616;52.470;13.436;2022-11-10T10:41:30;13.10;99.90
24436;DHT22;12616;52.470;13.436;2022-11-10T10:47:53;13.20;99.90
24436;DHT22;12616;52.470;13.436;2022-11-10T11:02:27;13.10;99.90
24436;DHT22;12616;52.470;13.436;2022-11-10T11:08:03;13.30;99.90
24436;DHT22;12616;52.470;13.436;2022-11-10T11:11:10;13.60;99.90
24436;DHT22;12616;52.470;13.436;2022-11-10T11:16:45;13.50;99.90
24436;DHT22;12616;52.470;13.436;2022-11-10T11:19:35;13.50;99.90
24436;DHT22;12616;52.470;13.436;2022-11-10T11:25:45;13.40;99.90
24436;DHT22;12616;52.470;13.436;2022-11-10T11:28:57;13.50;99.90
24436;DHT22;12616;52.470;13.436;2022-11-10T11:39:35;13.90;99.90
24436;DHT22;12616;52.470;13.436;2022-11-10T11:46:01;14.30;27.40
24436;DHT22;12616;52.470;13.436;2022-11-10T11:49:16;14.40;21.50
24436;DHT22;12616;52.470;13.436;2022-11-10T11:52:24;14.40;8.30
24436;DHT22;12616;52.470;13.436;2022-11-10T11:55:26;14.40;28.50
24436;DHT22;12616;52.470;13.436;2022-11-10T11:58:35;14.40;1.00
24436;DHT22;12616;52.470;13.436;2022-11-10T12:02:08;14.40;2.10
24436;DHT22;12616;52.470;13.436;2022-11-10T12:08:25;14.20;13.10
24436;DHT22;12616;52.470;13.436;2022-11-10T12:11:20;14.10;15.50
24436;DHT22;12616;52.470;13.436;2022-11-10T12:14:16;14.10;26.30
24436;DHT22;12616;52.470;13.436;2022-11-10T12:17:03;14.10;11.20
24436;DHT22;12616;52.470;13.436;2022-11-10T12:19:49;14.10;21.40
24436;DHT22;12616;52.470;13.436;2022-11-10T12:22:45;14.20;31.90
24436;DHT22;12616;52.470;13.436;2022-11-10T12:25:44;14.30;6.40
24436;DHT22;12616;52.470;13.436;2022-11-10T12:28:40;14.30;13.80
24436;DHT22;12616;52.470;13.436;2022-11-10T12:31:22;14.10;1.00
24436;DHT22;12616;52.470;13.436;2022-11-10T12:34:27;14.20;17.30
24436;DHT22;12616;52.470;13.436;2022-11-10T12:37:41;14.10;6.50
24436;DHT22;12616;52.470;13.436;2022-11-10T12:40:21;14.10;15.20
24436;DHT22;12616;52.470;13.436;2022-11-10T12:43:26;14.10;13.40
24436;DHT22;12616;52.470;13.436;2022-11-10T12:49:03;14.20;1.00
24436;DHT22;12616;52.470;13.436;2022-11-10T12:51:40;14.10;1.00
24436;DHT22;12616;52.470;13.436;2022-11-10T12:54:30;14.00;1.30
24436;DHT22;12616;52.470;13.436;2022-11-10T12:57:14;14.00;3.90
24436;DHT22;12616;52.470;13.436;2022-11-10T13:00:20;14.00;1.00
24436;DHT22;12616;52.470;13.436;2022-11-10T13:06:25;14.40;1.00
24436;DHT22;12616;52.470;13.436;2022-11-10T13:09:44;14.50;1.00
24436;DHT22;12616;52.470;13.436;2022-11-10T13:21:01;14.30;1.00
24436;DHT22;12616;52.470;13.436;2022-11-10T13:26:51;14.10;1.00
24436;DHT22;12616;52.470;13.436;2022-11-10T13:29:31;13.90;1.00
24436;DHT22;12616;52.470;13.436;2022-11-10T13:32:23;13.90;1.00
24436;DHT22;12616;52.470;13.436;2022-11-10T13:41:42;14.10;1.00
24436;DHT22;12616;52.470;13.436;2022-11-10T13:47:56;14.20;1.00
24436;DHT22;12616;52.470;13.436;2022-11-10T13:50:43;14.20;1.00
24436;DHT22;12616;52.470;13.436;2022-11-10T13:53:25;14.20;1.00
24436;DHT22;12616;52.470;13.436;2022-11-10T13:56:08;14.30;99.90
24436;DHT22;12616;52.470;13.436;2022-11-10T13:58:42;14.20;1.00
24436;DHT22;12616;52.470;13.436;2022-11-10T14:01:24;14.30;1.00
24436;DHT22;12616;52.470;13.436;2022-11-10T14:03:55;14.30;1.00
24436;DHT22;12616;52.470;13.436;2022-11-10T14:06:27;14.30;99.90
24436;DHT22;12616;52.470;13.436;2022-11-10T14:09:03;14.20;1.00
24436;DHT22;12616;52.470;13.436;2022-11-10T14:11:38;14.20;1.00
24436;DHT22;12616;52.470;13.436;2022-11-10T14:14:12;13.80;99.90
24436;DHT22;12616;52.470;13.436;2022-11-10T14:16:41;13.70;99.90
24436;DHT22;12616;52.470;13.436;2022-11-10T14:19:31;14.00;1.00
24436;DHT22;12616;52.470;13.436;2022-11-10T14:22:08;14.00;1.00
24436;DHT22;12616;52.470;13.436;2022-11-10T14:24:53;13.90;1.00
24436;DHT22;12616;52.470;13.436;2022-11-10T14:27:24;14.00;1.00
24436;DHT22;12616;52.470;13.436;2022-11-10T14:30:05;13.70;99.90
24436;DHT22;12616;52.470;13.436;2022-11-10T14:32:32;13.90;1.00
24436;DHT22;12616;52.470;13.436;2022-11-10T14:35:00;13.80;99.90
24436;DHT22;12616;52.470;13.436;2022-11-10T14:37:28;13.80;99.90
24436;DHT22;12616;52.470;13.436;2022-11-10T14:39:56;13.80;1.00
24436;DHT22;12616;52.470;13.436;2022-11-10T14:42:27;13.80;1.00
24436;DHT22;12616;52.470;13.436;2022-11-10T14:45:06;13.80;1.00
24436;DHT22;12616;52.470;13.436;2022-11-10T14:47:33;13.70;7.80
24436;DHT22;12616;52.470;13.436;2022-11-10T14:50:15;14.00;30.00
24436;DHT22;12616;52.470;13.436;2022-11-10T14:52:45;14.10;99.90
24436;DHT22;12616;52.470;13.436;2022-11-10T14:55:17;13.70;1.00
24436;DHT22;12616;52.470;13.436;2022-11-10T14:57:59;13.90;99.90
24436;DHT22;12616;52.470;13.436;2022-11-10T15:00:27;13.80;99.90
24436;DHT22;12616;52.470;13.436;2022-11-10T15:02:59;13.60;7.20
24436;DHT22;12616;52.470;13.436;2022-11-10T15:05:30;13.60;21.90
24436;DHT22;12616;52.470;13.436;2022-11-10T15:07:57;13.60;5.50
24436;DHT22;12616;52.470;13.436;2022-11-10T15:10:26;13.70;99.90
24436;DHT22;12616;52.470;13.436;2022-11-10T15:13:03;13.40;10.30
24436;DHT22;12616;52.470;13.436;2022-11-10T15:15:30;13.40;11.60
24436;DHT22;12616;52.470;13.436;2022-11-10T15:17:57;13.40;67.40
24436;DHT22;12616;52.470;13.436;2022-11-10T15:20:35;13.70;99.90
24436;DHT22;12616;52.470;13.436;2022-11-10T15:23:05;13.30;27.40
24436;DHT22;12616;52.470;13.436;2022-11-10T15:25:40;13.30;84.10
24436;DHT22;12616;52.470;13.436;2022-11-10T15:28:20;13.20;29.30
24436;DHT22;12616;52.470;13.436;2022-11-10T15:30:53;13.20;30.60
24436;DHT22;12616;52.470;13.436;2022-11-10T15:33:24;13.10;48.80
24436;DHT22;12616;52.470;13.436;2022-11-10T15:35:53;13.10;75.20
24436;DHT22;12616;52.470;13.436;2022-11-10T15:38:26;12.90;99.90
24436;DHT22;12616;52.470;13.436;2022-11-10T15:41:13;12.90;99.90
24436;DHT22;12616;52.470;13.436;2022-11-10T15:43:41;12.90;99.90
24436;DHT22;12616;52.470;13.436;2022-11-10T15:46:16;12.80;99.90
24436;DHT22;12616;52.470;13.436;2022-11-10T15:48:45;12.70;99.90
24436;DHT22;12616;52.470;13.436;2022-11-10T15:51:14;12.70;99.90
24436;DHT22;12616;52.470;13.436;2022-11-10T15:53:43;12.50;1.00
24436;DHT22;12616;52.470;13.436;2022-11-10T15:56:12;12.70;99.90
24436;DHT22;12616;52.470;13.436;2022-11-10T15:58:45;12.70;99.90
24436;DHT22;12616;52.470;13.436;2022-11-10T16:01:13;12.60;99.90
24436;DHT22;12616;52.470;13.436;2022-11-10T16:03:40;12.60;99.90
24436;DHT22;12616;52.470;13.436;2022-11-10T16:06:10;12.40;1.00
24436;DHT22;12616;52.470;13.436;2022-11-10T16:08:37;12.50;99.90
24436;DHT22;12616;52.470;13.436;2022-11-10T16:11:06;12.20;1.00
24436;DHT22;12616;52.470;13.436;2022-11-10T16:13:35;12.50;99.90
24436;DHT22;12616;52.470;13.436;2022-11-10T16:16:04;12.40;99.90
24436;DHT22;12616;52.470;13.436;2022-11-10T16:18:31;12.70;1.00
24436;DHT22;12616;52.470;13.436;2022-11-10T16:20:58;12.40;99.90
24436;DHT22;12616;52.470;13.436;2022-11-10T16:23:24;12.30;99.90
24436;DHT22;12616;52.470;13.436;2022-11-10T16:25:53;12.30;99.90
24436;DHT22;12616;52.470;13.436;2022-11-10T16:28:23;12.20;99.90
24436;DHT22;12616;52.470;13.436;2022-11-10T16:30:51;12.20;99.90
24436;DHT22;12616;52.470;13.436;2022-11-10T16:33:20;12.20;99.90
24436;DHT22;12616;52.470;13.436;2022-11-10T16:35:49;12.10;99.90
24436;DHT22;12616;52.470;13.436;2022-11-10T16:38:19;12.10;99.90
24436;DHT22;12616;52.470;13.436;2022-11-10T16:40:49;12.10;99.90
24436;DHT22;12616;52.470;13.436;2022-11-10T16:43:17;12.10;99.90
24436;DHT22;12616;52.470;13.436;2022-11-10T16:45:45;12.10;99.90
24436;DHT22;12616;52.470;13.436;2022-11-10T16:48:15;12.10;99.90
24436;DHT22;12616;52.470;13.436;2022-11-10T16:50:45;12.10;99.90
24436;DHT22;12616;52.470;13.436;2022-11-10T16:53:16;12.20;99.90
24436;DHT22;12616;52.470;13.436;2022-11-10T16:55:43;12.10;1.00
24436;DHT22;12616;52.470;13.436;2022-11-10T16:58:10;12.00;99.90
24436;DHT22;12616;52.470;13.436;2022-11-10T17:00:38;11.80;1.00
24436;DHT22;12616;52.470;13.436;2022-11-10T17:03:36;12.00;99.90
24436;DHT22;12616;52.470;13.436;2022-11-10T17:06:18;11.90;99.90
24436;DHT22;12616;52.470;13.436;2022-11-10T17:08:55;11.90;99.90
24436;DHT22;12616;52.470;13.436;2022-11-10T17:16:34;11.40;1.00
24436;DHT22;12616;52.470;13.436;2022-11-10T17:19:03;12.20;1.00
24436;DHT22;12616;52.470;13.436;2022-11-10T17:21:33;11.90;99.90
24436;DHT22;12616;52.470;13.436;2022-11-10T17:24:01;11.90;99.90
24436;DHT22;12616;52.470;13.436;2022-11-10T17:26:29;11.70;1.00
24436;DHT22;12616;52.470;13.436;2022-11-10T17:28:56;11.90;99.90
24436;DHT22;12616;52.470;13.436;2022-11-10T17:31:23;12.20;99.90
24436;DHT22;12616;52.470;13.436;2022-11-10T17:33:50;11.80;1.00
24436;DHT22;12616;52.470;13.436;2022-11-10T17:36:19;12.00;99.90
24436;DHT22;12616;52.470;13.436;2022-11-10T17:38:48;12.00;99.90
24436;DHT22;12616;52.470;13.436;2022-11-10T17:41:17;12.00;99.90
24436;DHT22;12616;52.470;13.436;2022-11-10T17:43:45;12.10;99.90
24436;DHT22;12616;52.470;13.436;2022-11-10T17:46:12;12.10;99.90
24436;DHT22;12616;52.470;13.436;2022-11-10T17:51:09;12.10;99.90
24436;DHT22;12616;52.470;13.436;2022-11-10T17:58:33;12.00;1.00
24436;DHT22;12616;52.470;13.436;2022-11-10T18:01:00;12.50;1.00
24436;DHT22;12616;52.470;13.436;2022-11-10T18:03:27;12.50;1.00
24436;DHT22;12616;52.470;13.436;2022-11-10T18:05:54;12.10;99.90
24436;DHT22;12616;52.470;13.436;2022-11-10T18:08:20;12.00;1.00
24436;DHT22;12616;52.470;13.436;2022-11-10T18:10:49;12.10;1.00
24436;DHT22;12616;52.470;13.436;2022-11-10T18:13:18;12.40;99.90
24436;DHT22;12616;52.470;13.436;2022-11-10T18:15:46;12.30;99.90
24436;DHT22;12616;52.470;13.436;2022-11-10T18:18:14;12.30;99.90
24436;DHT22;12616;52.470;13.436;2022-11-10T18:20:42;12.30;99.90
24436;DHT22;12616;52.470;13.436;2022-11-10T18:23:09;12.30;99.90
24436;DHT22;12616;52.470;13.436;2022-11-10T18:25:37;12.30;99.90
24436;DHT22;12616;52.470;13.436;2022-11-10T18:33:49;12.20;99.90
24436;DHT22;12616;52.470;13.436;2022-11-10T18:36:18;12.20;99.90
24436;DHT22;12616;52.470;13.436;2022-11-10T18:38:46;12.20;99.90
24436;DHT22;12616;52.470;13.436;2022-11-10T18:41:12;12.20;99.90
24436;DHT22;12616;52.470;13.436;2022-11-10T18:43:53;12.20;99.90
24436;DHT22;12616;52.470;13.436;2022-11-10T18:46:21;12.20;99.90
24436;DHT22;12616;52.470;13.436;2022-11-10T18:48:48;11.90;99.90
24436;DHT22;12616;52.470;13.436;2022-11-10T18:51:15;12.20;99.90
24436;DHT22;12616;52.470;13.436;2022-11-10T18:58:38;12.30;99.90
24436;DHT22;12616;52.470;13.436;2022-11-10T19:01:07;13.10;1.00
24436;DHT22;12616;52.470;13.436;2022-11-10T19:03:36;12.40;99.90
24436;DHT22;12616;52.470;13.436;2022-11-10T19:08:30;12.30;99.90
24436;DHT22;12616;52.470;13.436;2022-11-10T19:10:57;12.30;99.90
24436;DHT22;12616;52.470;13.436;2022-11-10T19:13:25;12.10;1.00
24436;DHT22;12616;52.470;13.436;2022-11-10T19:15:52;12.40;99.90
24436;DHT22;12616;52.470;13.436;2022-11-10T19:18:20;12.50;99.90
24436;DHT22;12616;52.470;13.436;2022-11-10T19:28:26;12.20;99.90
24436;DHT22;12616;52.470;13.436;2022-11-10T19:30:58;12.20;99.90
24436;DHT22;12616;52.470;13.436;2022-11-10T19:33:27;12.30;99.90
24436;DHT22;12616;52.470;13.436;2022-11-10T19:36:00;12.30;99.90
24436;DHT22;12616;52.470;13.436;2022-11-10T19:38:28;12.30;99.90
24436;DHT22;12616;52.470;13.436;2022-11-10T19:40:55;12.20;1.00